Time;durP1;ratioP1;P1;durP2;ratioP2;P2;SDS_P1;SDS_P2;PMS_P1;PMS_P2;Temp;Humidity;BMP_temperature;BMP_pressure;BME280_temperature;BME280_humidity;BME280_pressure;Samples;Min_cycle;Max_cycle;Signal;HPM_P1;HPM_P2
2022/09/20 00:01:30;;;;;;;5.13;3.20;;;;;;;13.48;64.79;100077.86;1752720;81;21313;-75
2022/09/20 00:03:59;;;;;;;7.47;3.03;;;;;;;13.41;64.82;100076.88;1756140;81;21343;-76
2022/09/20 00:06:29;;;;;;;4.17;2.90;;;;;;;13.30;64.96;100072.18;1752793;81;21091;-76
2022/09/20 00:08:55;;;;;;;5.53;3.10;;;;;;;13.21;65.14;100071.18;1755211;80;22288;-75
2022/09/20 00:11:27;;;;;;;6.97;3.20;;;;;;;13.21;65.33;100071.18;1754376;80;21631;-75
2022/09/20 00:13:55;;;;;;;4.70;3.10;;;;;;;13.23;65.43;100078.41;1751665;81;21220;-75
2022/09/20 00:16:34;;;;;;;5.70;2.90;;;;;;;13.27;65.42;100081.34;1747680;81;21266;-76
2022/09/20 00:19:02;;;;;;;5.00;2.87;;;;;;;13.29;65.39;100081.33;1754365;80;21245;-76
2022/09/20 00:21:31;;;;;;;5.00;3.00;;;;;;;13.30;65.30;100082.91;1748329;81;21295;-76
2022/09/20 00:23:57;;;;;;;5.53;2.93;;;;;;;13.30;65.34;100079.44;1753399;81;21630;-76
2022/09/20 00:26:25;;;;;;;6.67;2.93;;;;;;;13.30;65.31;100076.20;1752998;81;21233;-76
2022/09/20 00:28:52;;;;;;;5.77;2.60;;;;;;;13.27;65.24;100072.75;1784877;78;21314;-76
2022/09/20 00:31:18;;;;;;;6.13;3.20;;;;;;;13.24;65.25;100067.96;1784988;78;21102;-75
2022/09/20 00:36:32;;;;;;;4.77;3.10;;;;;;;13.25;65.28;100069.55;1761849;81;21267;-76
2022/09/20 00:39:00;;;;;;;6.07;3.30;;;;;;;13.26;65.19;100068.48;1758458;81;21228;-76
2022/09/20 00:41:27;;;;;;;6.17;3.27;;;;;;;13.26;65.00;100060.95;1761256;81;21399;-77
2022/09/20 00:43:54;;;;;;;5.60;3.23;;;;;;;13.25;64.82;100062.84;1761452;81;21321;-76
2022/09/20 00:46:41;;;;;;;5.17;3.23;;;;;;;13.23;64.63;100065.55;1754280;81;21333;-76
2022/09/20 00:49:21;;;;;;;5.00;3.13;;;;;;;13.20;64.46;100071.48;1783881;78;21263;-76
2022/09/20 00:51:54;;;;;;;5.40;3.50;;;;;;;13.14;64.34;100067.50;1784394;78;21229;-76
2022/09/20 00:54:20;;;;;;;7.80;3.30;;;;;;;13.06;64.32;100066.80;1785663;78;21201;-75
2022/09/20 00:56:47;;;;;;;5.47;3.05;;;;;;;12.96;64.38;100084.86;1751682;81;21062;-76
2022/09/20 00:59:18;;;;;;;4.83;3.13;;;;;;;12.86;64.47;100083.88;1754191;80;21599;-76
2022/09/20 01:01:48;;;;;;;4.70;2.90;;;;;;;12.73;64.71;100087.22;1786245;78;21832;-76
2022/09/20 01:04:15;;;;;;;6.23;3.20;;;;;;;12.59;64.89;100082.27;1761191;81;21396;-75
2022/09/20 01:06:43;;;;;;;5.40;3.20;;;;;;;12.51;65.04;100084.23;1761493;81;21336;-76
2022/09/20 01:09:10;;;;;;;6.85;3.17;;;;;;;12.42;65.20;100084.82;1763651;81;20960;-76
2022/09/20 01:11:36;;;;;;;5.80;3.20;;;;;;;12.41;65.28;100079.75;1766275;81;21051;-76
2022/09/20 01:14:04;;;;;;;4.53;2.92;;;;;;;12.41;65.30;100072.52;1764965;81;21153;-75
2022/09/20 01:16:31;;;;;;;5.07;3.43;;;;;;;12.44;65.35;100070.62;1754899;80;22165;-75
2022/09/20 01:19:00;;;;;;;5.85;3.37;;;;;;;12.47;65.43;100071.94;1753370;81;21231;-75
2022/09/20 01:21:26;;;;;;;5.80;3.50;;;;;;;12.52;65.42;100067.86;1754183;81;21086;-75
2022/09/20 01:24:16;;;;;;;5.87;3.52;;;;;;;12.59;65.40;100062.17;1754406;81;21337;-75
2022/09/20 01:27:33;;;;;;;5.27;3.40;;;;;;;12.65;65.47;100062.39;1750521;80;21814;-75
2022/09/20 01:30:11;;;;;;;7.07;3.57;;;;;;;12.74;65.58;100062.59;1625813;87;21209;-77
2022/09/20 01:33:09;;;;;;;4.40;3.00;;;;;;;12.80;65.50;100070.81;1736400;80;21782;-75
2022/09/20 01:35:36;;;;;;;4.40;3.05;;;;;;;12.84;65.48;100074.00;1743790;82;21133;-75
2022/09/20 01:38:19;;;;;;;6.70;3.50;;;;;;;12.86;65.48;100077.17;1755871;78;21004;-76
2022/09/20 01:41:17;;;;;;;7.67;3.50;;;;;;;12.86;65.51;100072.36;1783798;78;21669;-76
2022/09/20 01:43:54;;;;;;;5.80;2.90;;;;;;;12.84;65.53;100074.00;1784389;78;21677;-75
2022/09/20 01:46:31;;;;;;;6.17;3.00;;;;;;;12.86;65.62;100062.44;1784187;78;21142;-76
2022/09/20 01:49:21;;;;;;;5.07;3.30;;;;;;;12.87;65.59;100055.22;1752117;81;22168;-76
2022/09/20 01:52:10;;;;;;;5.97;3.45;;;;;;;12.80;65.67;100051.53;1769920;78;21174;-77
2022/09/20 01:54:48;;;;;;;5.80;3.60;;;;;;;12.73;65.79;100052.38;1753426;81;21042;-77
2022/09/20 01:58:06;;;;;;;6.50;4.13;;;;;;;12.63;65.95;100053.28;1750890;81;21568;-77
2022/09/20 02:00:49;;;;;;;6.53;3.87;;;;;;;12.61;66.15;100050.10;1752023;80;21246;-76
2022/09/20 02:03:28;;;;;;;;;;;;;;;12.59;66.24;100054.94;1756508;80;21768;-75
2022/09/20 02:06:09;;;;;;;5.57;3.30;;;;;;;12.57;66.45;100060.31;1755386;81;20163;-76
2022/09/20 02:08:50;;;;;;;5.67;3.77;;;;;;;12.57;66.56;100061.64;1742582;80;21798;-76
2022/09/20 02:11:39;;;;;;;6.08;3.42;;;;;;;12.59;66.62;100066.19;1753901;81;21504;-76
2022/09/20 02:14:52;;;;;;;7.15;4.10;;;;;;;12.78;66.34;100067.09;1756829;81;21010;-75
2022/09/20 02:17:48;;;;;;;7.37;3.60;;;;;;;12.76;66.27;100065.77;1754939;81;20995;-76
2022/09/20 02:21:04;;;;;;;5.87;3.60;;;;;;;12.80;66.47;100070.81;1739949;80;21253;-75
2022/09/20 02:24:01;;;;;;;6.67;3.80;;;;;;;12.78;66.67;100071.11;1755434;81;21561;-75
2022/09/20 02:26:40;;;;;;;7.53;3.93;;;;;;;12.85;66.67;100070.77;1728607;81;21220;-75
2022/09/20 02:29:18;;;;;;;6.17;3.43;;;;;;;12.89;66.66;100075.27;1727143;83;21167;-75
2022/09/20 02:31:56;;;;;;;5.37;3.30;;;;;;;12.95;66.62;100069.32;1726003;83;21802;-75
2022/09/20 02:34:44;;;;;;;5.23;3.30;;;;;;;12.97;66.52;100066.38;1749792;81;21232;-75
2022/09/20 02:37:51;;;;;;;7.40;3.33;;;;;;;13.00;66.43;100062.58;1756732;80;21064;-75
2022/09/20 02:40:26;;;;;;;6.23;3.47;;;;;;;13.02;66.40;100064.96;1735767;81;21545;-76
2022/09/20 02:43:04;;;;;;;6.63;3.57;;;;;;;13.06;66.35;100064.64;1750890;80;21215;-76
2022/09/20 02:46:00;;;;;;;5.60;3.70;;;;;;;13.05;66.26;100069.20;1755300;80;21744;-76
2022/09/20 02:48:37;;;;;;;5.90;3.57;;;;;;;13.05;66.19;100060.38;1757658;81;21225;-76
2022/09/20 02:51:30;;;;;;;5.50;3.57;;;;;;;13.04;66.10;100054.77;1755165;80;21454;-76
2022/09/20 02:54:34;;;;;;;7.00;3.50;;;;;;;13.03;65.99;100055.83;1728511;80;21162;-77
2022/09/20 02:57:15;;;;;;;5.53;3.50;;;;;;;12.95;65.81;100058.59;1698883;80;21239;-76
2022/09/20 03:00:20;;;;;;;9.03;4.17;;;;;;;12.84;65.75;100057.92;1783274;78;21462;-77
2022/09/20 03:02:56;;;;;;;7.77;4.50;;;;;;;12.75;65.83;100062.29;1783324;78;21730;-76
2022/09/20 03:05:52;;;;;;;7.43;3.80;;;;;;;12.69;65.87;100063.41;1786878;78;21258;-76
2022/09/20 03:08:36;;;;;;;6.70;4.40;;;;;;;12.57;65.82;100070.51;1783264;78;21258;-76
2022/09/20 03:11:35;;;;;;;8.50;3.80;;;;;;;12.35;66.04;100070.16;1774937;80;21079;-76
2022/09/20 03:14:27;;;;;;;7.25;3.70;;;;;;;12.18;66.40;100070.56;1760495;81;21042;-78
2022/09/20 03:17:23;;;;;;;6.62;3.70;;;;;;;12.14;66.65;100069.50;1755438;81;21133;-76
2022/09/20 03:20:05;;;;;;;6.87;3.95;;;;;;;12.15;66.85;100077.81;1743538;81;21030;-76
2022/09/20 03:22:37;;;;;;;6.10;3.50;;;;;;;12.17;67.01;100076.97;1755610;81;21531;-77
2022/09/20 03:25:18;;;;;;;6.58;3.58;;;;;;;12.23;67.12;100080.42;1757869;80;21055;-75
2022/09/20 03:28:16;;;;;;;5.30;3.20;;;;;;;12.26;67.13;100079.32;1791019;80;21486;-77
2022/09/20 03:31:06;;;;;;;6.17;3.50;;;;;;;12.30;67.12;100083.03;1792685;78;21054;-75
2022/09/20 03:33:50;;;;;;;6.17;3.37;;;;;;;12.31;67.05;100085.99;1759709;81;21043;-75
2022/09/20 03:36:28;;;;;;;5.85;3.22;;;;;;;12.25;66.99;100087.11;1748817;81;21086;-76
2022/09/20 03:39:23;;;;;;;5.35;3.45;;;;;;;12.26;67.06;100091.91;1779513;80;20995;-77
2022/09/20 03:42:18;;;;;;;5.90;3.17;;;;;;;12.30;67.17;100097.77;1784475;78;21071;-76
2022/09/20 03:45:21;;;;;;;5.47;2.90;;;;;;;12.33;67.18;100095.87;1756806;81;21997;-76
2022/09/20 03:48:20;;;;;;;5.92;3.10;;;;;;;12.30;67.27;100091.61;1757418;81;21501;-77
2022/09/20 03:51:07;;;;;;;5.95;2.80;;;;;;;12.38;67.41;100085.13;1752895;80;21109;-76
2022/09/20 03:54:14;;;;;;;5.63;2.97;;;;;;;12.45;67.35;100086.14;1752998;81;21499;-77
2022/09/20 03:56:58;;;;;;;6.62;3.10;;;;;;;12.49;67.24;100081.02;1756551;81;21178;-76
2022/09/20 03:59:33;;;;;;;7.30;3.17;;;;;;;12.41;67.32;100090.47;1760095;81;21019;-76
2022/09/20 04:02:30;;;;;;;5.00;2.97;;;;;;;12.40;67.48;100093.69;1762235;81;20963;-76
2022/09/20 04:05:06;;;;;;;5.05;3.22;;;;;;;12.42;67.57;100102.23;1762004;81;21859;-77
2022/09/20 04:08:07;;;;;;;5.12;2.92;;;;;;;12.42;67.71;100100.89;1713633;81;21033;-77
2022/09/20 04:11:01;;;;;;;7.10;3.60;;;;;;;12.40;67.91;100101.73;1754221;81;21073;-76
2022/09/20 04:13:38;;;;;;;8.15;3.67;;;;;;;12.39;68.18;100097.97;1782834;78;21032;-75
2022/09/20 04:16:49;;;;;;;9.83;5.07;;;;;;;12.42;68.37;100095.53;1785343;78;21035;-76
2022/09/20 04:19:45;;;;;;;9.13;6.17;;;;;;;12.43;68.50;100093.11;1785732;78;21741;-75
2022/09/20 04:22:13;;;;;;;10.20;6.00;;;;;;;12.47;68.60;100092.55;1762970;81;21156;-75
2022/09/20 04:25:06;;;;;;;11.37;5.20;;;;;;;12.50;68.58;100084.74;1762897;81;21065;-76
2022/09/20 04:27:42;;;;;;;12.50;7.30;;;;;;;12.52;68.47;100091.17;1759158;81;21374;-75
2022/09/20 04:30:23;;;;;;;12.23;8.20;;;;;;;12.51;68.47;100088.25;1761295;81;21786;-76
2022/09/20 04:33:20;;;;;;;17.37;8.50;;;;;;;12.51;68.48;100093.61;1759550;81;21256;-75
2022/09/20 04:36:38;;;;;;;16.47;9.00;;;;;;;12.51;68.56;100093.06;1759240;81;21318;-76
2022/09/20 04:39:18;;;;;;;14.63;7.73;;;;;;;12.61;68.66;100094.85;1759633;81;21349;-76
2022/09/20 04:42:31;;;;;;;12.00;7.33;;;;;;;12.74;68.62;100106.25;1732091;81;21294;-76
2022/09/20 04:45:33;;;;;;;10.60;6.33;;;;;;;12.84;68.52;100102.14;1760815;81;21920;-76
2022/09/20 04:48:37;;;;;;;10.80;5.93;;;;;;;12.92;68.32;100106.08;1760985;81;21335;-76
2022/09/20 04:51:45;;;;;;;11.37;5.87;;;;;;;12.98;68.10;100115.67;1762938;81;21301;-76
2022/09/20 04:54:49;;;;;;;9.63;5.10;;;;;;;13.06;67.92;100113.73;1761973;81;21134;-77
2022/09/20 04:57:53;;;;;;;7.00;4.87;;;;;;;13.15;67.69;100116.02;1756668;81;21891;-77
2022/09/20 05:00:22;;;;;;;9.50;5.13;;;;;;;13.21;67.40;100110.61;1762496;81;21311;-76
2022/09/20 05:03:29;;;;;;;10.90;5.27;;;;;;;13.24;67.08;100110.88;1763764;81;21264;-76
2022/09/20 05:06:52;;;;;;;8.63;5.23;;;;;;;13.28;66.97;100114.57;1759903;81;21178;-75
2022/09/20 05:09:30;;;;;;;10.60;6.00;;;;;;;13.26;66.72;100114.59;1755634;80;21364;-76
2022/09/20 05:12:02;;;;;;;8.50;5.37;;;;;;;13.30;66.79;100106.25;1752142;81;21332;-77
2022/09/20 05:14:52;;;;;;;6.83;4.63;;;;;;;13.42;66.82;100102.60;1749064;80;21859;-75
2022/09/20 05:17:44;;;;;;;8.87;4.53;;;;;;;13.57;66.63;100102.42;1786548;78;21322;-76
2022/09/20 05:21:02;;;;;;;6.60;4.30;;;;;;;13.71;66.28;100105.74;1787440;78;21332;-76
2022/09/20 05:24:05;;;;;;;5.63;4.10;;;;;;;13.84;65.88;100109.05;1787525;78;20988;-76
2022/09/20 05:26:57;;;;;;;6.67;4.17;;;;;;;13.94;65.39;100101.41;1759841;81;21910;-76
2022/09/20 05:29:41;;;;;;;;;;;;;;;14.00;64.97;100098.91;1763335;81;21282;-76
2022/09/20 05:32:36;;;;;;;8.07;4.33;;;;;;;14.01;64.47;100097.81;1760994;81;21642;-76
2022/09/20 05:35:24;;;;;;;7.90;5.23;;;;;;;14.03;64.05;100097.78;1763592;80;21766;-76
2022/09/20 05:38:22;;;;;;;8.87;4.90;;;;;;;14.04;63.76;100098.57;1707762;83;21279;-76
2022/09/20 05:41:17;;;;;;;9.50;5.27;;;;;;;14.02;63.55;100100.22;1725112;82;21210;-76
2022/09/20 05:43:53;;;;;;;8.80;5.03;;;;;;;14.04;63.57;100099.91;1742769;82;21148;-77
2022/09/20 05:47:05;;;;;;;7.63;5.20;;;;;;;14.08;63.62;100095.55;1758756;81;21761;-76
2022/09/20 05:50:02;;;;;;;8.33;4.55;;;;;;;14.16;63.46;100092.77;1768659;81;21079;-77
2022/09/20 05:52:49;;;;;;;7.53;4.83;;;;;;;14.20;62.95;100092.44;1708932;84;21010;-75
2022/09/20 05:55:27;;;;;;;8.60;5.40;;;;;;;14.19;62.96;100095.67;1726458;81;21351;-77
2022/09/20 05:58:20;;;;;;;8.23;6.10;;;;;;;14.21;62.66;100092.13;1764953;80;21191;-76
2022/09/20 06:01:16;;;;;;;10.73;6.23;;;;;;;14.22;62.51;100091.61;1754534;81;21248;-76
2022/09/20 06:04:16;;;;;;;10.33;6.53;;;;;;;14.22;62.28;100090.27;1755072;81;21262;-76
2022/09/20 06:06:52;;;;;;;11.13;7.03;;;;;;;14.24;62.16;100092.89;1752015;81;21274;-78
2022/09/20 06:09:45;;;;;;;8.40;6.20;;;;;;;14.28;62.12;100090.41;1782481;80;21372;-76
2022/09/20 06:12:30;;;;;;;11.63;6.00;;;;;;;14.31;61.85;100089.83;1740941;81;21238;-77
2022/09/20 06:15:03;;;;;;;9.13;5.97;;;;;;;14.36;61.70;100094.34;1787518;78;21934;-76
2022/09/20 06:17:58;;;;;;;8.33;4.60;;;;;;;14.39;61.48;100084.36;1755121;81;21750;-77
2022/09/20 06:20:46;;;;;;;8.07;4.43;;;;;;;14.40;61.23;100079.22;1755916;80;21222;-73
2022/09/20 06:23:13;;;;;;;8.63;4.30;;;;;;;14.43;61.28;100075.95;1725685;83;21592;-76
2022/09/20 06:25:58;;;;;;;8.87;4.60;;;;;;;14.48;61.15;100076.67;1726150;81;21878;-77
2022/09/20 06:28:42;;;;;;;10.67;4.70;;;;;;;14.51;61.10;100078.80;1753598;81;21328;-76
2022/09/20 06:31:10;;;;;;;6.80;4.73;;;;;;;14.57;61.28;100078.70;1754684;80;21325;-75
2022/09/20 06:33:52;;;;;;;7.00;4.20;;;;;;;14.65;61.41;100085.55;1701111;83;21278;-76
2022/09/20 06:42:28;;;;;;;7.97;4.23;;;;;;;14.90;61.79;100083.48;1754839;81;21930;-76
2022/09/20 06:44:55;;;;;;;6.83;4.20;;;;;;;14.96;61.54;100081.75;1786916;78;21533;-76
2022/09/20 06:47:22;;;;;;;6.40;4.23;;;;;;;15.02;61.51;100089.19;1761712;81;21885;-75
2022/09/20 06:49:49;;;;;;;9.07;4.10;;;;;;;15.04;61.34;100092.39;1751317;81;21908;-75
2022/09/20 06:52:18;;;;;;;6.40;4.17;;;;;;;15.13;61.23;100098.64;1787996;78;21420;-76
2022/09/20 06:54:48;;;;;;;7.23;3.47;;;;;;;15.18;61.28;100099.91;1788686;80;21884;-76
2022/09/20 06:57:18;;;;;;;7.23;4.00;;;;;;;15.48;60.88;100095.02;1785958;78;21982;-76
2022/09/20 06:59:45;;;;;;;5.93;3.50;;;;;;;15.57;60.57;100083.80;1755937;80;21445;-75
2022/09/20 07:02:11;;;;;;;5.57;3.60;;;;;;;15.57;60.79;100085.70;1788308;80;21461;-76
2022/09/20 07:04:37;;;;;;;5.73;2.97;;;;;;;15.68;60.35;100087.87;1761920;80;21414;-75
2022/09/20 07:07:06;;;;;;;4.77;2.80;;;;;;;15.78;60.00;100085.52;1721188;81;22230;-76
2022/09/20 07:09:33;;;;;;;5.93;3.37;;;;;;;15.94;58.66;100091.37;1757328;81;21683;-76
2022/09/20 07:12:00;;;;;;;5.33;3.23;;;;;;;15.94;58.66;100091.37;1755965;80;21477;-75
2022/09/20 07:14:27;;;;;;;6.23;3.47;;;;;;;15.97;57.98;100087.27;1744705;82;21645;-76
2022/09/20 07:16:53;;;;;;;5.67;3.40;;;;;;;16.13;57.87;100083.12;1728341;82;21738;-75
2022/09/20 07:19:22;;;;;;;5.03;3.37;;;;;;;16.28;57.73;100080.61;1726592;81;21765;-76
2022/09/20 07:21:49;;;;;;;6.33;3.20;;;;;;;16.40;57.08;100082.20;1757257;81;21637;-76
2022/09/20 07:24:15;;;;;;;5.27;3.00;;;;;;;16.48;57.00;100086.05;1758339;81;21737;-77
2022/09/20 07:27:00;;;;;;;5.90;3.00;;;;;;;16.55;56.66;100090.45;1757661;81;22148;-77
2022/09/20 07:29:27;;;;;;;6.10;3.30;;;;;;;16.58;56.64;100090.66;1757265;81;22114;-76
2022/09/20 07:31:55;;;;;;;6.17;3.63;;;;;;;16.60;56.25;100089.78;1726866;81;22234;-76
2022/09/20 07:34:22;;;;;;;5.00;3.20;;;;;;;16.60;56.33;100084.39;1726851;82;21583;-76
2022/09/20 07:36:51;;;;;;;5.13;3.13;;;;;;;16.57;55.88;100082.30;1757817;81;21641;-78
2022/09/20 07:39:18;;;;;;;6.37;3.50;;;;;;;16.52;55.72;100079.75;1757309;81;21745;-79
2022/09/20 07:41:47;;;;;;;6.10;2.87;;;;;;;16.44;55.72;100083.17;1757390;81;21007;-78
2022/09/20 07:44:20;;;;;;;6.43;3.43;;;;;;;16.37;55.81;100090.91;1757394;81;21681;-74
2022/09/20 07:46:52;;;;;;;5.57;3.87;;;;;;;16.32;56.14;100097.22;1762614;80;22150;-75
2022/09/20 07:49:18;;;;;;;4.55;3.20;;;;;;;16.29;56.45;100100.53;1758908;81;21794;-76
2022/09/20 07:51:45;;;;;;;5.50;3.27;;;;;;;16.26;56.65;100099.00;1755276;80;21117;-73
2022/09/20 07:54:11;;;;;;;4.80;3.00;;;;;;;16.20;56.83;100098.87;1753888;80;22291;-75
2022/09/20 07:56:39;;;;;;;5.00;3.23;;;;;;;16.14;57.06;100100.88;1790224;80;21641;-77
2022/09/20 07:59:05;;;;;;;6.10;3.60;;;;;;;16.08;57.30;100101.54;1790722;79;21664;-76
2022/09/20 08:01:34;;;;;;;6.60;3.93;;;;;;;16.06;57.49;100104.31;1789253;80;21751;-78
2022/09/20 08:04:07;;;;;;;5.67;4.10;;;;;;;16.02;57.66;100108.14;1789638;79;21641;-76
2022/09/20 08:06:41;;;;;;;6.22;3.90;;;;;;;16.02;58.14;100105.45;1777755;80;21383;-78
2022/09/20 08:09:07;;;;;;;8.73;3.97;;;;;;;16.08;58.52;100109.62;1759359;81;21238;-79
2022/09/20 08:11:36;;;;;;;6.80;4.43;;;;;;;16.16;59.12;100102.73;1759345;81;22244;-77
2022/09/20 08:14:03;;;;;;;5.63;3.60;;;;;;;16.23;59.03;100105.00;1759482;81;21653;-76
2022/09/20 08:16:30;;;;;;;6.73;4.37;;;;;;;16.29;58.92;100099.73;1770008;78;21703;-77
2022/09/20 08:19:01;;;;;;;9.30;4.27;;;;;;;16.37;59.00;100102.47;1789836;80;21725;-79
2022/09/20 08:21:33;;;;;;;11.30;4.72;;;;;;;16.43;58.93;100103.16;1789145;78;21634;-78
2022/09/20 08:24:00;;;;;;;7.73;4.37;;;;;;;16.45;59.08;100098.80;1774106;80;21602;-78
2022/09/20 08:26:28;;;;;;;8.40;4.40;;;;;;;16.47;59.00;100092.00;1788251;78;21754;-77
2022/09/20 08:28:56;;;;;;;6.27;4.00;;;;;;;16.47;59.00;100092.00;1785061;78;21078;-76
2022/09/20 08:31:27;;;;;;;7.17;3.87;;;;;;;16.52;59.20;100091.89;1784726;78;20996;-75
2022/09/20 08:33:54;;;;;;;6.57;3.40;;;;;;;16.56;59.25;100091.51;1784497;78;21104;-77
2022/09/20 08:36:23;;;;;;;6.07;2.97;;;;;;;16.56;59.10;100096.90;1785300;78;21748;-75
2022/09/20 08:38:51;;;;;;;3.97;2.73;;;;;;;16.56;59.10;100096.90;1784670;78;21081;-75
2022/09/20 08:41:24;;;;;;;4.97;2.53;;;;;;;16.48;58.15;100089.53;1785645;78;21812;-77
2022/09/20 08:44:01;;;;;;;4.93;2.40;;;;;;;16.42;57.86;100089.44;1785161;78;21451;-75
2022/09/20 08:46:33;;;;;;;5.20;2.40;;;;;;;16.42;57.86;100089.44;1784844;78;21220;-75
2022/09/20 08:48:59;;;;;;;4.60;2.50;;;;;;;16.39;57.65;100094.09;1788446;80;21078;-76
2022/09/20 08:51:29;;;;;;;4.40;2.33;;;;;;;16.27;57.12;100088.45;1787315;78;21075;-75
2022/09/20 08:53:57;;;;;;;4.73;2.80;;;;;;;16.23;57.47;100090.17;1788375;80;21705;-76
2022/09/20 08:56:30;;;;;;;5.57;2.87;;;;;;;16.17;57.96;100092.98;1787973;78;20940;-76
2022/09/20 08:58:59;;;;;;;5.43;2.73;;;;;;;16.13;58.27;100091.21;1788481;80;22209;-77
2022/09/20 09:01:28;;;;;;;4.80;2.87;;;;;;;16.12;58.76;100094.98;1788582;80;20971;-76
2022/09/20 09:04:17;;;;;;;4.97;2.83;;;;;;;16.16;59.38;100092.74;1788054;78;21799;-76
2022/09/20 09:06:44;;;;;;;6.13;2.57;;;;;;;16.20;59.68;100090.78;1745265;81;21659;-76
2022/09/20 09:09:25;;;;;;;5.07;2.70;;;;;;;16.17;59.71;100088.94;1760184;81;21596;-77
2022/09/20 09:11:54;;;;;;;4.45;2.60;;;;;;;16.20;59.83;100092.13;1759789;81;22170;-76
2022/09/20 09:14:54;;;;;;;6.17;2.87;;;;;;;16.20;59.95;100086.75;1772675;78;21008;-76
2022/09/20 09:17:21;;;;;;;5.83;3.17;;;;;;;16.11;59.89;100090.71;1790462;79;22237;-75
2022/09/20 09:19:54;;;;;;;5.03;2.90;;;;;;;16.12;60.37;100087.73;1789049;78;21797;-77
2022/09/20 09:22:41;;;;;;;5.13;2.93;;;;;;;16.10;60.45;100089.91;1790666;78;21596;-76
2022/09/20 09:25:33;;;;;;;4.40;2.70;;;;;;;16.14;60.44;100095.48;1779355;78;21695;-76
2022/09/20 09:28:11;;;;;;;7.45;2.77;;;;;;;16.11;60.20;100092.05;1754683;81;22115;-77
2022/09/20 09:30:46;;;;;;;3.93;2.53;;;;;;;16.01;60.14;100092.30;1734795;78;21491;-76
2022/09/20 09:33:27;;;;;;;6.43;2.90;;;;;;;16.01;60.14;100092.30;1764781;81;20959;-76
2022/09/20 09:35:59;;;;;;;4.37;2.67;;;;;;;16.00;60.67;100090.16;1763916;81;21720;-77
2022/09/20 09:38:33;;;;;;;6.67;2.90;;;;;;;16.05;60.95;100087.33;1752571;81;21434;-77
2022/09/20 09:41:03;;;;;;;3.77;2.60;;;;;;;16.07;60.86;100085.69;1751061;81;21338;-77
2022/09/20 09:43:34;;;;;;;4.83;2.63;;;;;;;16.14;61.29;100084.16;1775308;80;22323;-77
2022/09/20 09:46:21;;;;;;;5.60;2.87;;;;;;;16.24;61.17;100083.67;1754517;80;21760;-77
2022/09/20 09:49:06;;;;;;;4.80;3.00;;;;;;;16.33;60.97;100081.84;1756107;80;21047;-77
2022/09/20 09:51:35;;;;;;;7.63;3.97;;;;;;;16.37;60.79;100088.20;1740906;80;21732;-77
2022/09/20 09:54:01;;;;;;;4.70;3.10;;;;;;;16.50;61.21;100083.30;1753224;80;21109;-78
2022/09/20 09:57:12;;;;;;;5.80;3.10;;;;;;;16.50;61.21;100083.30;1752317;81;21622;-78
2022/09/20 10:00:13;;;;;;;4.27;2.53;;;;;;;16.71;61.25;100070.08;1727068;83;21091;-77
2022/09/20 10:03:09;;;;;;;5.40;2.55;;;;;;;16.71;61.25;100070.08;1727184;83;21062;-77
2022/09/20 10:06:05;;;;;;;5.10;2.40;;;;;;;16.74;60.39;100061.37;1712135;81;21036;-78
2022/09/20 10:08:59;;;;;;;4.33;2.20;;;;;;;16.70;60.17;100068.50;1755362;80;21029;-78
2022/09/20 10:12:01;;;;;;;3.80;1.80;;;;;;;16.62;59.67;100064.66;1723664;81;21549;-79
2022/09/20 10:14:42;;;;;;;5.03;1.87;;;;;;;16.41;59.79;100063.58;1735861;82;21201;-79
2022/09/20 10:17:33;;;;;;;2.00;1.42;;;;;;;16.18;60.13;100058.74;1734785;82;21107;-80
2022/09/20 10:20:09;;;;;;;2.05;1.40;;;;;;;16.07;60.52;100059.55;1734840;82;21160;-78
2022/09/20 10:23:07;;;;;;;2.73;1.50;;;;;;;15.99;60.66;100056.77;1759338;81;21042;-78
2022/09/20 10:25:51;;;;;;;3.03;1.60;;;;;;;15.98;61.05;100046.55;1753905;81;21680;-79
2022/09/20 10:28:35;;;;;;;2.70;1.83;;;;;;;15.99;60.84;100042.78;1749680;81;21713;-77
2022/09/20 10:31:24;;;;;;;3.50;1.90;;;;;;;15.92;60.65;100039.13;1755478;80;22215;-78
2022/09/20 10:34:19;;;;;;;3.37;1.70;;;;;;;15.87;60.65;100046.55;1754621;80;22211;-79
2022/09/20 10:36:58;;;;;;;3.87;2.10;;;;;;;15.66;61.47;100047.52;1754291;81;22125;-79
2022/09/20 10:39:34;;;;;;;5.80;3.20;;;;;;;15.66;61.47;100047.52;1757108;81;21054;-79
2022/09/20 10:45:29;;;;;;;4.27;2.20;;;;;;;15.61;61.88;100036.32;1726933;83;21650;-78
2022/09/20 10:48:16;;;;;;;4.13;2.17;;;;;;;15.54;61.98;100027.87;1713012;81;21711;-80
2022/09/20 10:51:31;;;;;;;5.20;2.30;;;;;;;15.54;62.38;100029.77;1783994;78;21773;-74
2022/09/20 10:54:25;;;;;;;3.93;2.33;;;;;;;15.54;62.35;100023.83;1761350;81;21713;-77
2022/09/20 10:56:57;;;;;;;3.73;2.30;;;;;;;15.58;62.52;100020.77;1761623;81;21724;-78
2022/09/20 11:00:10;;;;;;;6.03;2.70;;;;;;;15.55;62.69;100026.77;1761031;81;22152;-78
2022/09/20 11:03:03;;;;;;;4.33;2.73;;;;;;;15.48;62.88;100021.79;1763255;81;21885;-77
2022/09/20 11:05:44;;;;;;;5.20;2.67;;;;;;;15.44;63.07;100024.84;1762294;81;22275;-78
2022/09/20 11:08:17;;;;;;;4.47;2.53;;;;;;;15.39;63.54;100030.33;1757110;81;21680;-78
2022/09/20 11:11:16;;;;;;;6.33;2.60;;;;;;;15.28;63.84;100028.16;1761462;81;21707;-78
2022/09/20 11:14:08;;;;;;;7.43;3.50;;;;;;;15.19;64.07;100026.16;1743464;81;21745;-78
2022/09/20 11:16:46;;;;;;;5.40;3.20;;;;;;;15.13;64.15;100024.67;1761606;81;22257;-79
2022/09/20 11:19:37;;;;;;;3.83;2.73;;;;;;;15.14;65.16;100028.98;1760464;81;21631;-77
2022/09/20 11:22:12;;;;;;;4.83;2.73;;;;;;;15.14;65.16;100027.63;1747133;81;21680;-78
2022/09/20 11:24:49;;;;;;;5.33;2.70;;;;;;;15.14;65.24;100026.28;1762138;81;21774;-78
2022/09/20 11:27:38;;;;;;;4.50;2.40;;;;;;;15.12;65.29;100022.30;1750958;81;22258;-78
2022/09/20 11:30:17;;;;;;;5.73;2.60;;;;;;;15.05;65.32;100021.36;1738212;81;21665;-78
2022/09/20 11:33:06;;;;;;;3.13;2.20;;;;;;;15.01;65.85;100023.84;1750965;80;21625;-79
2022/09/20 11:35:38;;;;;;;4.23;2.70;;;;;;;15.03;65.97;100020.05;1751609;81;21794;-79
2022/09/20 11:38:31;;;;;;;4.80;2.60;;;;;;;15.00;66.36;100016.06;1755976;80;22384;-79
2022/09/20 11:41:28;;;;;;;4.00;2.80;;;;;;;15.10;66.10;100017.20;1762485;81;22214;-79
2022/09/20 11:43:59;;;;;;;5.77;2.70;;;;;;;15.19;65.94;100012.72;1763366;81;21700;-79
2022/09/20 11:46:31;;;;;;;6.37;3.58;;;;;;;15.19;65.94;100012.72;1736525;81;22215;-79
2022/09/20 11:49:17;;;;;;;5.15;3.15;;;;;;;15.17;66.23;100011.45;1766518;81;21012;-79
2022/09/20 11:52:04;;;;;;;4.40;2.63;;;;;;;15.20;66.27;100006.26;1766208;81;21070;-79
2022/09/20 11:55:03;;;;;;;3.90;2.23;;;;;;;15.28;66.30;100002.61;1761401;81;22022;-79
2022/09/20 11:57:29;;;;;;;6.23;3.10;;;;;;;15.38;65.98;100001.83;1761995;81;21577;-79
2022/09/20 12:00:04;;;;;;;6.40;3.30;;;;;;;15.45;65.84;99998.73;1759203;81;21745;-79
2022/09/20 12:02:47;;;;;;;4.93;2.80;;;;;;;15.49;65.59;99998.36;1758658;81;21744;-79
2022/09/20 12:05:34;;;;;;;5.17;3.03;;;;;;;15.57;65.23;100001.69;1760205;81;21539;-79
2022/09/20 12:08:04;;;;;;;5.27;3.10;;;;;;;15.65;64.72;99994.23;1746414;80;22253;-79
2022/09/20 12:10:36;;;;;;;4.00;2.90;;;;;;;15.67;64.75;99997.45;1771287;80;21718;-78
2022/09/20 12:13:07;;;;;;;5.77;3.63;;;;;;;15.74;64.71;99998.38;1754357;81;21698;-78
2022/09/20 12:15:38;;;;;;;4.53;3.50;;;;;;;15.77;64.50;99991.59;1734022;81;21783;-78
2022/09/20 12:18:22;;;;;;;5.57;3.83;;;;;;;15.77;64.49;99996.42;1703536;83;21094;-78
2022/09/20 12:21:03;;;;;;;4.63;3.50;;;;;;;15.77;64.49;99995.63;1762065;80;21658;-77
2022/09/20 12:23:47;;;;;;;4.73;3.60;;;;;;;15.71;64.38;99991.70;1754416;80;22353;-78
2022/09/20 12:26:28;;;;;;;5.03;3.63;;;;;;;15.66;64.29;99995.02;1786693;78;21753;-78
2022/09/20 12:28:57;;;;;;;5.30;3.70;;;;;;;15.58;64.47;99983.64;1728206;83;22036;-80
2022/09/20 12:31:32;;;;;;;5.47;4.10;;;;;;;15.57;64.71;99986.89;1745789;81;21790;-78
2022/09/20 12:34:14;;;;;;;4.77;3.87;;;;;;;15.60;64.68;99986.28;1758810;81;21674;-79
2022/09/20 12:36:58;;;;;;;13.25;4.35;;;;;;;15.57;64.57;99982.06;1757662;81;21771;-79
2022/09/20 12:39:34;;;;;;;6.63;4.47;;;;;;;15.56;64.64;99985.27;1756902;81;21047;-80
2022/09/20 12:42:11;;;;;;;6.17;4.10;;;;;;;15.55;64.70;99979.66;1772529;80;22190;-80
2022/09/20 12:44:50;;;;;;;6.67;4.97;;;;;;;15.57;64.93;99965.35;1756555;81;21513;-80